createdAt,value
2024-05-09T00:04:11.938Z,11.2
2024-05-09T00:10:22.052Z,11.2
2024-05-09T00:16:11.904Z,11.1
2024-05-09T00:22:11.907Z,11
2024-05-09T00:28:11.932Z,11
2024-05-09T00:34:12.001Z,11
2024-05-09T00:40:18.744Z,11
2024-05-09T00:46:11.930Z,10.9
2024-05-09T00:52:15.740Z,10.9
2024-05-09T00:58:11.928Z,10.8
2024-05-09T01:04:12.074Z,10.8
2024-05-09T01:12:12.091Z,10.7
2024-05-09T01:18:13.221Z,10.6
2024-05-09T01:24:11.902Z,10.5
2024-05-09T01:30:17.280Z,10.5
2024-05-09T01:36:11.897Z,10.4
2024-05-09T01:42:11.908Z,10.3
2024-05-09T01:48:12.118Z,10.3
2024-05-09T01:54:11.898Z,10.3
2024-05-09T02:00:15.634Z,10.2
2024-05-09T02:06:12.058Z,10.2
2024-05-09T02:12:12.230Z,10.2
2024-05-09T02:18:12.605Z,10.2
2024-05-09T02:24:11.921Z,10.1
2024-05-09T02:30:18.950Z,10
2024-05-09T02:36:11.894Z,9.9
2024-05-09T02:42:11.906Z,9.9
2024-05-09T02:48:13.069Z,9.9
2024-05-09T02:54:11.904Z,9.9
2024-05-09T03:00:18.528Z,9.8
2024-05-09T03:06:11.907Z,9.7
2024-05-09T03:12:12.144Z,9.7
2024-05-09T03:18:12.868Z,9.6
2024-05-09T03:24:11.992Z,9.6
2024-05-09T03:36:11.905Z,9.5
2024-05-09T03:42:11.920Z,9.5
2024-05-09T03:48:12.348Z,9.5
2024-05-09T03:54:11.957Z,10.1
2024-05-09T04:00:17.975Z,9.9
2024-05-09T04:06:11.952Z,10
2024-05-09T04:12:12.267Z,10
2024-05-09T04:18:12.022Z,10.1
2024-05-09T04:24:11.948Z,10.2
2024-05-09T04:30:18.965Z,10.4
2024-05-09T04:36:11.898Z,10.4
2024-05-09T04:42:11.920Z,10.4
2024-05-09T04:48:12.195Z,10.7
2024-05-09T04:54:22.204Z,11
2024-05-09T05:00:32.339Z,11
2024-05-09T05:06:11.998Z,10.9
2024-05-09T05:12:11.998Z,11
2024-05-09T05:18:11.994Z,10.9
2024-05-09T05:24:11.908Z,11.1
2024-05-09T05:30:17.936Z,11
2024-05-09T05:36:11.949Z,11.1
2024-05-09T05:42:11.918Z,11.4
2024-05-09T05:48:12.075Z,11.2
2024-05-09T05:54:11.927Z,11.4
2024-05-09T06:06:11.980Z,11.6
2024-05-09T06:12:12.055Z,11.8
2024-05-09T06:18:12.751Z,11.7
2024-05-09T06:24:14.657Z,11.8
2024-05-09T06:30:24.859Z,12
2024-05-09T06:36:11.914Z,12.5
2024-05-09T06:42:11.914Z,12.6
2024-05-09T06:48:12.237Z,12.6
2024-05-09T06:54:11.905Z,12.6
2024-05-09T07:00:15.679Z,12.9
2024-05-09T07:06:11.972Z,13
2024-05-09T07:18:12.223Z,13.6
2024-05-09T07:24:11.911Z,13.4
2024-05-09T07:30:16.650Z,13.6
2024-05-09T07:36:11.946Z,14.1
2024-05-09T07:42:11.940Z,13.7
2024-05-09T07:49:45.021Z,14.1
2024-05-09T07:54:12.034Z,14.8
2024-05-09T08:00:14.540Z,15
2024-05-09T08:12:11.964Z,18.5
2024-05-09T08:18:12.151Z,19.3
2024-05-09T08:24:12.042Z,22
2024-05-09T08:30:19.008Z,24.2
2024-05-09T08:36:15.516Z,25.9
2024-05-09T08:42:11.912Z,26
2024-05-09T08:48:12.149Z,27.2
2024-05-09T08:54:11.923Z,27.4
2024-05-09T09:00:15.128Z,26.6
2024-05-09T09:06:12.031Z,28.5
2024-05-09T09:12:11.925Z,29.6
2024-05-09T09:18:12.418Z,30.3
2024-05-09T09:24:11.929Z,30.1
2024-05-09T09:30:27.293Z,31.1
2024-05-09T09:36:11.963Z,29.7
2024-05-09T09:42:13.278Z,28.8
2024-05-09T09:48:12.143Z,30.6
2024-05-09T09:54:12.009Z,30.6
2024-05-09T10:00:17.277Z,30.2
2024-05-09T10:06:11.959Z,29.8
2024-05-09T10:12:18.664Z,28.7
2024-05-09T10:18:14.576Z,29.3
2024-05-09T10:24:11.960Z,27.6
2024-05-09T10:30:17.855Z,28
2024-05-09T10:36:11.969Z,28.8
2024-05-09T10:42:11.936Z,29.1
2024-05-09T10:48:12.114Z,29.2
2024-05-09T10:54:12.070Z,30.2
2024-05-09T11:06:12.048Z,28.3
2024-05-09T11:12:12.190Z,28.3
2024-05-09T11:18:12.193Z,27.5
2024-05-09T11:24:12.018Z,25.7
2024-05-09T11:30:17.433Z,25.7
2024-05-09T11:36:12.038Z,25.6
2024-05-09T11:48:12.100Z,23.8
2024-05-09T11:54:11.997Z,23.9
2024-05-09T12:00:17.971Z,23.5
2024-05-09T12:06:12.066Z,23.6
2024-05-09T12:12:11.990Z,22.4
2024-05-09T12:18:12.020Z,22.6
2024-05-09T12:24:14.431Z,23.5
2024-05-09T12:30:17.238Z,23.7
2024-05-09T12:36:11.991Z,24.5
2024-05-09T12:42:16.617Z,24.5
2024-05-09T12:48:13.977Z,24.7
2024-05-09T12:54:11.988Z,23.7
2024-05-09T13:00:20.690Z,23.4
2024-05-09T13:06:12.029Z,22.1
2024-05-09T13:12:12.040Z,21.8
2024-05-09T13:18:12.010Z,21.8
2024-05-09T13:24:11.986Z,21.9
2024-05-09T13:30:21.749Z,21.8
2024-05-09T13:36:12.015Z,22.7
2024-05-09T13:42:12.007Z,23.8
2024-05-09T13:48:12.437Z,23.7
2024-05-09T13:54:12.080Z,23.2
2024-05-09T14:00:22.957Z,23.1
2024-05-09T14:06:13.122Z,23.1
2024-05-09T14:12:12.985Z,23.4
2024-05-09T14:18:13.902Z,22.9
2024-05-09T14:24:12.022Z,22.9
2024-05-09T14:36:12.008Z,22.5
2024-05-09T14:42:12.014Z,22.7
2024-05-09T14:48:12.269Z,22.7
2024-05-09T14:54:12.020Z,22.3
2024-05-09T15:00:20.809Z,21.9
2024-05-09T15:06:12.156Z,22.3
2024-05-09T15:12:12.018Z,22.2
2024-05-09T15:18:12.185Z,22.3
2024-05-09T15:24:12.036Z,22.8
2024-05-09T15:30:13.250Z,22.7
2024-05-09T15:36:12.103Z,22.2
2024-05-09T15:42:12.108Z,22
2024-05-09T15:48:12.189Z,21.7
2024-05-09T15:54:12.034Z,21.6
2024-05-09T16:00:21.830Z,21.3
2024-05-09T16:06:12.043Z,21.1
2024-05-09T16:12:12.010Z,20.6
2024-05-09T16:18:12.121Z,20.3
2024-05-09T16:24:12.019Z,20.1
2024-05-09T16:30:18.195Z,20
2024-05-09T16:36:18.754Z,20
2024-05-09T16:42:12.122Z,20.1
2024-05-09T16:48:16.625Z,20
2024-05-09T16:54:12.044Z,19.8
2024-05-09T17:00:18.300Z,19.9
2024-05-09T17:06:12.060Z,19.8
2024-05-09T17:12:12.069Z,19.9
2024-05-09T17:18:12.085Z,19.8
2024-05-09T17:30:17.748Z,19.8
2024-05-09T17:36:12.048Z,19.6
2024-05-09T17:42:12.039Z,19.7
2024-05-09T17:48:12.529Z,19.6
2024-05-09T17:54:12.039Z,19.4
2024-05-09T18:00:12.090Z,19.3
2024-05-09T18:06:12.096Z,19.2
2024-05-09T18:12:12.181Z,19
2024-05-09T18:18:12.271Z,19
2024-05-09T18:24:12.122Z,19
2024-05-09T18:30:21.154Z,18.9
2024-05-09T18:36:12.112Z,18.8
2024-05-09T18:42:12.061Z,18.7
2024-05-09T18:48:12.321Z,18.5
2024-05-09T18:54:12.054Z,18.4
2024-05-09T19:00:19.346Z,18.1
2024-05-09T19:06:12.047Z,18
2024-05-09T19:12:12.072Z,17.8
2024-05-09T19:18:12.503Z,17.6
2024-05-09T19:24:12.050Z,17.5
2024-05-09T19:30:21.016Z,17.3
2024-05-09T19:36:12.070Z,17.1
2024-05-09T19:42:12.051Z,17
2024-05-09T19:48:12.282Z,16.9
2024-05-09T19:54:12.058Z,16.8
2024-05-09T20:00:17.685Z,16.7
2024-05-09T20:06:12.094Z,16.6
2024-05-09T20:12:12.072Z,16.5
2024-05-09T20:18:12.262Z,16.3
2024-05-09T20:24:17.683Z,16.2
2024-05-09T20:30:14.622Z,16.2
2024-05-09T20:36:12.070Z,16.2
2024-05-09T20:42:12.088Z,16
2024-05-09T20:48:12.261Z,16
2024-05-09T20:54:12.066Z,16.1
2024-05-09T21:00:18.559Z,16.1
2024-05-09T21:06:12.047Z,16.1
2024-05-09T21:12:12.067Z,16
2024-05-09T21:18:12.156Z,16
2024-05-09T21:24:12.058Z,15.9
2024-05-09T21:30:18.684Z,15.7
2024-05-09T21:36:12.152Z,15.6
2024-05-09T21:42:12.081Z,15.5
2024-05-09T21:48:12.084Z,15.3
2024-05-09T21:54:12.056Z,15.4
2024-05-09T22:00:17.588Z,14.9
2024-05-09T22:06:12.140Z,14.8
2024-05-09T22:12:12.148Z,14.8
2024-05-09T22:18:12.262Z,14.6
2024-05-09T22:30:20.855Z,14.3
2024-05-09T22:36:12.058Z,14.5
2024-05-09T22:42:12.090Z,14.5
2024-05-09T22:48:12.275Z,14.5
2024-05-09T22:54:12.091Z,14.1
2024-05-09T23:00:15.739Z,14.1
2024-05-09T23:06:12.097Z,13.9
2024-05-09T23:12:12.380Z,13.9
2024-05-09T23:18:12.200Z,13.8
2024-05-09T23:24:12.072Z,13.8
2024-05-09T23:30:15.245Z,13.7
2024-05-09T23:36:12.056Z,13.9
2024-05-09T23:42:12.081Z,13.9
2024-05-09T23:48:12.270Z,13.8
2024-05-09T23:54:12.113Z,13.7
